sensor_id;sensor_type;location;lat;lon;timestamp;P1;durP1;ratioP1;P2;durP2;ratioP2
73315;SDS011;61545;53.726;-0.444;2022-12-18T00:03:13;12.1;;;5.7;;
73315;SDS011;61545;53.726;-0.444;2022-12-18T00:08:13;11.1;;;4.9;;
73315;SDS011;61545;53.726;-0.444;2022-12-18T00:13:13;12.9;;;6.5;;
73315;SDS011;61545;53.726;-0.444;2022-12-18T00:18:12;15.0;;;5.9;;
73315;SDS011;61545;53.726;-0.444;2022-12-18T00:23:12;7.9;;;4.4;;
73315;SDS011;61545;53.726;-0.444;2022-12-18T00:28:12;12.0;;;5;;
73315;SDS011;61545;53.726;-0.444;2022-12-18T00:33:12;12.0;;;5;;
73315;SDS011;61545;53.726;-0.444;2022-12-18T00:38:12;8.6;;;5;;
73315;SDS011;61545;53.726;-0.444;2022-12-18T00:43:12;12.6;;;5.6;;
73315;SDS011;61545;53.726;-0.444;2022-12-18T00:48:12;9.7;;;5;;
73315;SDS011;61545;53.726;-0.444;2022-12-18T00:53:13;11.4;;;5.4;;
73315;SDS011;61545;53.726;-0.444;2022-12-18T00:58:13;10.6;;;4.9;;
73315;SDS011;61545;53.726;-0.444;2022-12-18T01:03:13;10.6;;;4.9;;
73315;SDS011;61545;53.726;-0.444;2022-12-18T01:08:12;10.2;;;5;;
73315;SDS011;61545;53.726;-0.444;2022-12-18T01:13:13;9.7;;;5.1;;
73315;SDS011;61545;53.726;-0.444;2022-12-18T01:18:12;9.8;;;5.4;;
73315;SDS011;61545;53.726;-0.444;2022-12-18T01:23:12;12.7;;;5.8;;
73315;SDS011;61545;53.726;-0.444;2022-12-18T01:28:12;13.7;;;6.7;;
73315;SDS011;61545;53.726;-0.444;2022-12-18T01:33:12;13.7;;;6.7;;
73315;SDS011;61545;53.726;-0.444;2022-12-18T01:38:12;13.6;;;7.4;;
73315;SDS011;61545;53.726;-0.444;2022-12-18T01:43:12;10.2;;;6.1;;
73315;SDS011;61545;53.726;-0.444;2022-12-18T01:48:12;13.0;;;6.7;;
73315;SDS011;61545;53.726;-0.444;2022-12-18T01:53:14;12.7;;;6.2;;
73315;SDS011;61545;53.726;-0.444;2022-12-18T01:58:13;15.5;;;7.2;;
73315;SDS011;61545;53.726;-0.444;2022-12-18T02:03:12;15.5;;;7.2;;
73315;SDS011;61545;53.726;-0.444;2022-12-18T02:08:15;15.3;;;7.8;;
73315;SDS011;61545;53.726;-0.444;2022-12-18T02:13:14;13.1;;;7.3;;
73315;SDS011;61545;53.726;-0.444;2022-12-18T02:18:14;13.2;;;6.5;;
73315;SDS011;61545;53.726;-0.444;2022-12-18T02:23:19;12.3;;;7;;
73315;SDS011;61545;53.726;-0.444;2022-12-18T02:28:13;15.1;;;8.2;;
73315;SDS011;61545;53.726;-0.444;2022-12-18T02:33:12;15.1;;;8.2;;
73315;SDS011;61545;53.726;-0.444;2022-12-18T02:38:12;17.1;;;7.3;;
73315;SDS011;61545;53.726;-0.444;2022-12-18T02:43:14;16.2;;;7.5;;
73315;SDS011;61545;53.726;-0.444;2022-12-18T02:48:12;15.2;;;8.2;;
73315;SDS011;61545;53.726;-0.444;2022-12-18T02:53:16;14.6;;;8.8;;
73315;SDS011;61545;53.726;-0.444;2022-12-18T02:58:15;19.7;;;9.3;;
73315;SDS011;61545;53.726;-0.444;2022-12-18T03:03:14;19.7;;;9.3;;
73315;SDS011;61545;53.726;-0.444;2022-12-18T03:08:14;17.8;;;9.5;;
73315;SDS011;61545;53.726;-0.444;2022-12-18T03:13:14;17.4;;;9;;
73315;SDS011;61545;53.726;-0.444;2022-12-18T03:18:14;18.1;;;9.9;;
73315;SDS011;61545;53.726;-0.444;2022-12-18T03:23:15;14.6;;;8.6;;
73315;SDS011;61545;53.726;-0.444;2022-12-18T03:28:14;19.2;;;10.2;;
73315;SDS011;61545;53.726;-0.444;2022-12-18T03:33:15;19.2;;;10.2;;
73315;SDS011;61545;53.726;-0.444;2022-12-18T03:38:12;18.0;;;8.8;;
73315;SDS011;61545;53.726;-0.444;2022-12-18T03:43:16;19.3;;;10.3;;
73315;SDS011;61545;53.726;-0.444;2022-12-18T03:48:16;21.2;;;10.7;;
73315;SDS011;61545;53.726;-0.444;2022-12-18T03:53:18;19.9;;;10;;
73315;SDS011;61545;53.726;-0.444;2022-12-18T03:58:13;19.2;;;10.6;;
73315;SDS011;61545;53.726;-0.444;2022-12-18T04:03:12;19.2;;;10.6;;
73315;SDS011;61545;53.726;-0.444;2022-12-18T04:08:12;20.4;;;10.8;;
73315;SDS011;61545;53.726;-0.444;2022-12-18T04:13:13;22.0;;;10.9;;
73315;SDS011;61545;53.726;-0.444;2022-12-18T04:18:12;29.2;;;13.7;;
73315;SDS011;61545;53.726;-0.444;2022-12-18T04:23:12;24.6;;;13.3;;
73315;SDS011;61545;53.726;-0.444;2022-12-18T04:28:13;27.6;;;14.5;;
73315;SDS011;61545;53.726;-0.444;2022-12-18T04:33:16;27.6;;;14.5;;
73315;SDS011;61545;53.726;-0.444;2022-12-18T04:38:12;32.0;;;15.8;;
73315;SDS011;61545;53.726;-0.444;2022-12-18T04:43:13;31.7;;;15.9;;
73315;SDS011;61545;53.726;-0.444;2022-12-18T04:48:12;34.6;;;15.8;;
73315;SDS011;61545;53.726;-0.444;2022-12-18T04:53:12;37.5;;;17.2;;
73315;SDS011;61545;53.726;-0.444;2022-12-18T04:58:12;35.2;;;17.2;;
73315;SDS011;61545;53.726;-0.444;2022-12-18T05:03:13;35.2;;;17.2;;
73315;SDS011;61545;53.726;-0.444;2022-12-18T05:08:12;36.1;;;17.4;;
73315;SDS011;61545;53.726;-0.444;2022-12-18T05:13:12;37.2;;;17.1;;
73315;SDS011;61545;53.726;-0.444;2022-12-18T05:18:12;40.3;;;19.4;;
73315;SDS011;61545;53.726;-0.444;2022-12-18T05:23:13;50.9;;;22;;
73315;SDS011;61545;53.726;-0.444;2022-12-18T05:28:12;50.9;;;22;;
73315;SDS011;61545;53.726;-0.444;2022-12-18T05:33:12;50.7;;;20.9;;
73315;SDS011;61545;53.726;-0.444;2022-12-18T05:38:12;46.9;;;20.5;;
73315;SDS011;61545;53.726;-0.444;2022-12-18T05:43:13;55.7;;;22.5;;
73315;SDS011;61545;53.726;-0.444;2022-12-18T05:48:13;51.3;;;19.8;;
73315;SDS011;61545;53.726;-0.444;2022-12-18T05:53:13;50.2;;;19.5;;
73315;SDS011;61545;53.726;-0.444;2022-12-18T05:58:13;50.2;;;19.5;;
73315;SDS011;61545;53.726;-0.444;2022-12-18T06:03:13;48.8;;;19.9;;
73315;SDS011;61545;53.726;-0.444;2022-12-18T06:08:12;43.7;;;18.1;;
73315;SDS011;61545;53.726;-0.444;2022-12-18T06:13:12;45.9;;;18.4;;
73315;SDS011;61545;53.726;-0.444;2022-12-18T06:18:12;47.8;;;19.1;;
73315;SDS011;61545;53.726;-0.444;2022-12-18T06:23:13;44.4;;;18.5;;
73315;SDS011;61545;53.726;-0.444;2022-12-18T06:28:12;44.4;;;18.5;;
73315;SDS011;61545;53.726;-0.444;2022-12-18T06:33:12;54.3;;;20.7;;
73315;SDS011;61545;53.726;-0.444;2022-12-18T06:38:12;51.0;;;20.5;;
73315;SDS011;61545;53.726;-0.444;2022-12-18T06:43:13;46.8;;;19.1;;
73315;SDS011;61545;53.726;-0.444;2022-12-18T06:48:12;46.6;;;19.6;;
73315;SDS011;61545;53.726;-0.444;2022-12-18T06:53:13;54.6;;;22.1;;
73315;SDS011;61545;53.726;-0.444;2022-12-18T06:58:13;54.6;;;22.1;;
73315;SDS011;61545;53.726;-0.444;2022-12-18T07:03:13;52.8;;;21;;
73315;SDS011;61545;53.726;-0.444;2022-12-18T07:08:12;61.7;;;24.4;;
73315;SDS011;61545;53.726;-0.444;2022-12-18T07:13:12;53.9;;;22.4;;
73315;SDS011;61545;53.726;-0.444;2022-12-18T07:18:13;57.1;;;24.4;;
73315;SDS011;61545;53.726;-0.444;2022-12-18T07:23:13;54.2;;;22.4;;
73315;SDS011;61545;53.726;-0.444;2022-12-18T07:28:12;54.2;;;22.4;;
73315;SDS011;61545;53.726;-0.444;2022-12-18T07:33:12;50.5;;;21.6;;
73315;SDS011;61545;53.726;-0.444;2022-12-18T07:38:12;46.2;;;19.9;;
73315;SDS011;61545;53.726;-0.444;2022-12-18T07:43:13;46.9;;;20.5;;
73315;SDS011;61545;53.726;-0.444;2022-12-18T07:48:12;45.6;;;19.8;;
73315;SDS011;61545;53.726;-0.444;2022-12-18T07:53:12;43.3;;;18.8;;
73315;SDS011;61545;53.726;-0.444;2022-12-18T07:58:12;43.3;;;18.8;;
73315;SDS011;61545;53.726;-0.444;2022-12-18T08:03:14;50.0;;;22.2;;
73315;SDS011;61545;53.726;-0.444;2022-12-18T08:08:12;52.1;;;21.1;;
73315;SDS011;61545;53.726;-0.444;2022-12-18T08:13:12;45.3;;;20.5;;
73315;SDS011;61545;53.726;-0.444;2022-12-18T08:18:12;41.9;;;19;;
73315;SDS011;61545;53.726;-0.444;2022-12-18T08:23:13;44.1;;;20.6;;
73315;SDS011;61545;53.726;-0.444;2022-12-18T08:28:13;44.1;;;20.6;;
73315;SDS011;61545;53.726;-0.444;2022-12-18T08:33:13;47.2;;;19.9;;
73315;SDS011;61545;53.726;-0.444;2022-12-18T08:38:13;41.5;;;18.2;;
73315;SDS011;61545;53.726;-0.444;2022-12-18T08:43:13;45.6;;;19;;
73315;SDS011;61545;53.726;-0.444;2022-12-18T08:48:12;35.7;;;15.1;;
73315;SDS011;61545;53.726;-0.444;2022-12-18T08:53:12;32.6;;;14.4;;
73315;SDS011;61545;53.726;-0.444;2022-12-18T08:58:12;32.6;;;14.4;;
73315;SDS011;61545;53.726;-0.444;2022-12-18T09:03:13;37.1;;;15.9;;
73315;SDS011;61545;53.726;-0.444;2022-12-18T09:08:12;27.0;;;13.3;;
73315;SDS011;61545;53.726;-0.444;2022-12-18T09:13:13;32.0;;;14.4;;
73315;SDS011;61545;53.726;-0.444;2022-12-18T09:18:13;32.9;;;15;;
73315;SDS011;61545;53.726;-0.444;2022-12-18T09:23:13;36.8;;;15.1;;
73315;SDS011;61545;53.726;-0.444;2022-12-18T09:28:14;36.8;;;15.1;;
73315;SDS011;61545;53.726;-0.444;2022-12-18T09:33:13;38.3;;;16.5;;
73315;SDS011;61545;53.726;-0.444;2022-12-18T09:38:13;31.7;;;14.2;;
73315;SDS011;61545;53.726;-0.444;2022-12-18T09:43:17;41.9;;;17;;
73315;SDS011;61545;53.726;-0.444;2022-12-18T09:53:15;29.8;;;13;;
73315;SDS011;61545;53.726;-0.444;2022-12-18T09:58:15;29.8;;;13;;
73315;SDS011;61545;53.726;-0.444;2022-12-18T10:03:13;33.3;;;14.4;;
73315;SDS011;61545;53.726;-0.444;2022-12-18T10:08:13;35.8;;;15.6;;
73315;SDS011;61545;53.726;-0.444;2022-12-18T10:13:18;28.4;;;13;;
73315;SDS011;61545;53.726;-0.444;2022-12-18T10:18:19;34.7;;;15.3;;
73315;SDS011;61545;53.726;-0.444;2022-12-18T10:23:15;29.8;;;13.1;;
73315;SDS011;61545;53.726;-0.444;2022-12-18T10:28:14;29.8;;;13.1;;
73315;SDS011;61545;53.726;-0.444;2022-12-18T10:33:17;25.6;;;11.8;;
73315;SDS011;61545;53.726;-0.444;2022-12-18T10:38:21;32.3;;;13.8;;
73315;SDS011;61545;53.726;-0.444;2022-12-18T10:43:14;26.5;;;12.1;;
73315;SDS011;61545;53.726;-0.444;2022-12-18T10:48:18;34.5;;;14.9;;
73315;SDS011;61545;53.726;-0.444;2022-12-18T10:53:14;48.5;;;20.7;;
73315;SDS011;61545;53.726;-0.444;2022-12-18T10:58:15;48.5;;;20.7;;
73315;SDS011;61545;53.726;-0.444;2022-12-18T11:03:30;32.4;;;14.8;;
73315;SDS011;61545;53.726;-0.444;2022-12-18T11:08:20;38.0;;;17.4;;
73315;SDS011;61545;53.726;-0.444;2022-12-18T11:13:17;35.7;;;16.4;;
73315;SDS011;61545;53.726;-0.444;2022-12-18T11:18:16;31.0;;;14.2;;
73315;SDS011;61545;53.726;-0.444;2022-12-18T11:23:13;26.0;;;12.2;;
73315;SDS011;61545;53.726;-0.444;2022-12-18T11:28:26;26.0;;;12.2;;
73315;SDS011;61545;53.726;-0.444;2022-12-18T11:33:14;21.2;;;10;;
73315;SDS011;61545;53.726;-0.444;2022-12-18T11:38:20;17.2;;;8.6;;
73315;SDS011;61545;53.726;-0.444;2022-12-18T11:43:14;20.7;;;9.2;;
73315;SDS011;61545;53.726;-0.444;2022-12-18T11:48:14;17.9;;;8.5;;
73315;SDS011;61545;53.726;-0.444;2022-12-18T11:53:13;14.2;;;7.4;;
73315;SDS011;61545;53.726;-0.444;2022-12-18T11:58:17;14.2;;;7.4;;
73315;SDS011;61545;53.726;-0.444;2022-12-18T12:03:22;15.0;;;7.2;;
73315;SDS011;61545;53.726;-0.444;2022-12-18T12:08:15;16.2;;;7.2;;
73315;SDS011;61545;53.726;-0.444;2022-12-18T12:13:20;20.5;;;8.1;;
73315;SDS011;61545;53.726;-0.444;2022-12-18T12:18:18;15.0;;;7;;
73315;SDS011;61545;53.726;-0.444;2022-12-18T12:23:15;14.0;;;7.4;;
73315;SDS011;61545;53.726;-0.444;2022-12-18T12:28:18;14.0;;;7.4;;
73315;SDS011;61545;53.726;-0.444;2022-12-18T12:33:20;16.0;;;7.3;;
73315;SDS011;61545;53.726;-0.444;2022-12-18T12:38:14;17.7;;;8.6;;
73315;SDS011;61545;53.726;-0.444;2022-12-18T12:43:21;17.5;;;7.9;;
73315;SDS011;61545;53.726;-0.444;2022-12-18T12:48:16;14.9;;;8;;
73315;SDS011;61545;53.726;-0.444;2022-12-18T12:53:20;19.1;;;8.1;;
73315;SDS011;61545;53.726;-0.444;2022-12-18T12:58:15;19.1;;;8.1;;
73315;SDS011;61545;53.726;-0.444;2022-12-18T13:03:18;21.9;;;9.2;;
73315;SDS011;61545;53.726;-0.444;2022-12-18T13:08:22;18.9;;;8.6;;
73315;SDS011;61545;53.726;-0.444;2022-12-18T13:13:13;16.8;;;8.6;;
73315;SDS011;61545;53.726;-0.444;2022-12-18T13:18:17;16.8;;;8.5;;
73315;SDS011;61545;53.726;-0.444;2022-12-18T13:23:27;17.4;;;9;;
73315;SDS011;61545;53.726;-0.444;2022-12-18T13:28:13;17.4;;;9;;
73315;SDS011;61545;53.726;-0.444;2022-12-18T13:33:44;19.5;;;8.8;;
73315;SDS011;61545;53.726;-0.444;2022-12-18T13:38:20;25.9;;;12.7;;
73315;SDS011;61545;53.726;-0.444;2022-12-18T13:43:22;45.1;;;21.8;;
73315;SDS011;61545;53.726;-0.444;2022-12-18T13:48:18;20.1;;;9.8;;
73315;SDS011;61545;53.726;-0.444;2022-12-18T13:53:15;22.8;;;11.1;;
73315;SDS011;61545;53.726;-0.444;2022-12-18T13:58:12;22.8;;;11.1;;
73315;SDS011;61545;53.726;-0.444;2022-12-18T14:03:18;25.9;;;12;;
73315;SDS011;61545;53.726;-0.444;2022-12-18T14:08:13;22.5;;;10.5;;
73315;SDS011;61545;53.726;-0.444;2022-12-18T14:13:15;150.7;;;59.6;;
73315;SDS011;61545;53.726;-0.444;2022-12-18T14:18:19;69.6;;;29.7;;
73315;SDS011;61545;53.726;-0.444;2022-12-18T14:23:25;26.2;;;13;;
73315;SDS011;61545;53.726;-0.444;2022-12-18T14:28:14;26.2;;;13;;
73315;SDS011;61545;53.726;-0.444;2022-12-18T14:33:14;29.2;;;13.3;;
73315;SDS011;61545;53.726;-0.444;2022-12-18T14:38:23;26.3;;;12.3;;
73315;SDS011;61545;53.726;-0.444;2022-12-18T14:43:13;24.8;;;12.3;;
73315;SDS011;61545;53.726;-0.444;2022-12-18T14:48:16;23.3;;;11.7;;
73315;SDS011;61545;53.726;-0.444;2022-12-18T14:53:19;27.4;;;12.6;;
73315;SDS011;61545;53.726;-0.444;2022-12-18T14:58:13;27.4;;;12.6;;
73315;SDS011;61545;53.726;-0.444;2022-12-18T15:03:15;25.3;;;12.6;;
73315;SDS011;61545;53.726;-0.444;2022-12-18T15:08:29;24.6;;;12.5;;
73315;SDS011;61545;53.726;-0.444;2022-12-18T15:13:20;36.1;;;17.8;;
73315;SDS011;61545;53.726;-0.444;2022-12-18T15:18:14;42.0;;;20.6;;
73315;SDS011;61545;53.726;-0.444;2022-12-18T15:23:14;33.5;;;15.8;;
73315;SDS011;61545;53.726;-0.444;2022-12-18T15:28:17;33.5;;;15.8;;
73315;SDS011;61545;53.726;-0.444;2022-12-18T15:33:17;27.5;;;13.7;;
73315;SDS011;61545;53.726;-0.444;2022-12-18T15:38:13;36.4;;;17.6;;
73315;SDS011;61545;53.726;-0.444;2022-12-18T15:43:13;31.0;;;14.7;;
73315;SDS011;61545;53.726;-0.444;2022-12-18T15:48:18;48.6;;;22.3;;
73315;SDS011;61545;53.726;-0.444;2022-12-18T15:53:13;52.6;;;24.6;;
73315;SDS011;61545;53.726;-0.444;2022-12-18T15:58:13;52.6;;;24.6;;
73315;SDS011;61545;53.726;-0.444;2022-12-18T16:03:13;65.7;;;31.6;;
73315;SDS011;61545;53.726;-0.444;2022-12-18T16:08:13;33.5;;;18.5;;
73315;SDS011;61545;53.726;-0.444;2022-12-18T16:13:14;32.3;;;17;;
73315;SDS011;61545;53.726;-0.444;2022-12-18T16:18:13;30.0;;;15.7;;
73315;SDS011;61545;53.726;-0.444;2022-12-18T16:23:13;25.2;;;13.4;;
73315;SDS011;61545;53.726;-0.444;2022-12-18T16:28:13;25.2;;;13.4;;
73315;SDS011;61545;53.726;-0.444;2022-12-18T16:33:13;25.1;;;13.3;;
73315;SDS011;61545;53.726;-0.444;2022-12-18T16:38:13;42.8;;;20.4;;
73315;SDS011;61545;53.726;-0.444;2022-12-18T16:43:13;43.4;;;19.7;;
73315;SDS011;61545;53.726;-0.444;2022-12-18T16:48:13;35.9;;;17.5;;
73315;SDS011;61545;53.726;-0.444;2022-12-18T16:53:13;32.8;;;13.8;;
73315;SDS011;61545;53.726;-0.444;2022-12-18T16:58:13;32.8;;;13.8;;
73315;SDS011;61545;53.726;-0.444;2022-12-18T17:03:13;27.8;;;14.2;;
73315;SDS011;61545;53.726;-0.444;2022-12-18T17:08:13;26.5;;;13.1;;
73315;SDS011;61545;53.726;-0.444;2022-12-18T17:13:13;27.6;;;14.2;;
73315;SDS011;61545;53.726;-0.444;2022-12-18T17:18:13;23.3;;;12.6;;
73315;SDS011;61545;53.726;-0.444;2022-12-18T17:23:13;31.9;;;17.1;;
73315;SDS011;61545;53.726;-0.444;2022-12-18T17:28:13;31.9;;;17.1;;
73315;SDS011;61545;53.726;-0.444;2022-12-18T17:33:13;32.0;;;15.9;;
73315;SDS011;61545;53.726;-0.444;2022-12-18T17:38:13;27.9;;;13.8;;
73315;SDS011;61545;53.726;-0.444;2022-12-18T17:43:13;26.3;;;13.9;;
73315;SDS011;61545;53.726;-0.444;2022-12-18T17:48:13;23.5;;;13;;
73315;SDS011;61545;53.726;-0.444;2022-12-18T17:53:13;26.6;;;13.6;;
73315;SDS011;61545;53.726;-0.444;2022-12-18T17:58:13;26.6;;;13.6;;
73315;SDS011;61545;53.726;-0.444;2022-12-18T18:03:13;28.1;;;13.7;;
73315;SDS011;61545;53.726;-0.444;2022-12-18T18:08:13;27.2;;;14.7;;
73315;SDS011;61545;53.726;-0.444;2022-12-18T18:13:17;21.5;;;11.9;;
73315;SDS011;61545;53.726;-0.444;2022-12-18T18:18:13;19.9;;;11.2;;
73315;SDS011;61545;53.726;-0.444;2022-12-18T18:23:13;18.5;;;10.1;;
73315;SDS011;61545;53.726;-0.444;2022-12-18T18:28:13;18.5;;;10.1;;
73315;SDS011;61545;53.726;-0.444;2022-12-18T18:33:13;19.4;;;10.8;;
73315;SDS011;61545;53.726;-0.444;2022-12-18T18:38:13;34.9;;;18;;
73315;SDS011;61545;53.726;-0.444;2022-12-18T18:43:13;20.9;;;11.4;;
73315;SDS011;61545;53.726;-0.444;2022-12-18T18:48:13;19.2;;;10.7;;
73315;SDS011;61545;53.726;-0.444;2022-12-18T18:53:13;17.7;;;9.5;;
73315;SDS011;61545;53.726;-0.444;2022-12-18T18:58:13;17.7;;;9.5;;
73315;SDS011;61545;53.726;-0.444;2022-12-18T19:03:13;17.9;;;10;;
73315;SDS011;61545;53.726;-0.444;2022-12-18T19:08:13;16.4;;;8.8;;
73315;SDS011;61545;53.726;-0.444;2022-12-18T19:13:13;17.4;;;10.1;;
73315;SDS011;61545;53.726;-0.444;2022-12-18T19:18:13;16.9;;;9.5;;
73315;SDS011;61545;53.726;-0.444;2022-12-18T19:23:13;22.4;;;11.4;;
73315;SDS011;61545;53.726;-0.444;2022-12-18T19:28:13;22.4;;;11.4;;
73315;SDS011;61545;53.726;-0.444;2022-12-18T19:33:13;20.1;;;10.1;;
73315;SDS011;61545;53.726;-0.444;2022-12-18T19:38:13;16.8;;;8.9;;
73315;SDS011;61545;53.726;-0.444;2022-12-18T19:43:13;13.0;;;7.8;;
73315;SDS011;61545;53.726;-0.444;2022-12-18T19:48:13;11.2;;;6.7;;
73315;SDS011;61545;53.726;-0.444;2022-12-18T19:53:13;8.5;;;5.2;;
73315;SDS011;61545;53.726;-0.444;2022-12-18T19:58:13;8.5;;;5.2;;
73315;SDS011;61545;53.726;-0.444;2022-12-18T20:03:13;6.2;;;4.5;;
73315;SDS011;61545;53.726;-0.444;2022-12-18T20:08:13;7.4;;;4.7;;
73315;SDS011;61545;53.726;-0.444;2022-12-18T20:13:13;8.8;;;5.7;;
73315;SDS011;61545;53.726;-0.444;2022-12-18T20:18:13;11.0;;;6.4;;
73315;SDS011;61545;53.726;-0.444;2022-12-18T20:23:13;10.9;;;7.3;;
73315;SDS011;61545;53.726;-0.444;2022-12-18T20:28:13;10.9;;;7.3;;
73315;SDS011;61545;53.726;-0.444;2022-12-18T20:33:13;13.0;;;8.3;;
73315;SDS011;61545;53.726;-0.444;2022-12-18T20:38:13;10.7;;;7.6;;
73315;SDS011;61545;53.726;-0.444;2022-12-18T20:43:13;12.4;;;7.8;;
73315;SDS011;61545;53.726;-0.444;2022-12-18T20:48:13;15.4;;;9.1;;
73315;SDS011;61545;53.726;-0.444;2022-12-18T20:53:13;13.1;;;8.5;;
73315;SDS011;61545;53.726;-0.444;2022-12-18T20:58:13;13.1;;;8.5;;
73315;SDS011;61545;53.726;-0.444;2022-12-18T21:03:13;14.8;;;9.1;;
73315;SDS011;61545;53.726;-0.444;2022-12-18T21:08:13;22.2;;;14.1;;
73315;SDS011;61545;53.726;-0.444;2022-12-18T21:13:13;17.8;;;11.6;;
73315;SDS011;61545;53.726;-0.444;2022-12-18T21:18:13;15.6;;;9.8;;
73315;SDS011;61545;53.726;-0.444;2022-12-18T21:23:13;15.5;;;9.5;;
73315;SDS011;61545;53.726;-0.444;2022-12-18T21:28:13;15.5;;;9.5;;
73315;SDS011;61545;53.726;-0.444;2022-12-18T21:33:13;13.5;;;8.7;;
73315;SDS011;61545;53.726;-0.444;2022-12-18T21:38:13;14.9;;;8.5;;
73315;SDS011;61545;53.726;-0.444;2022-12-18T21:43:13;15.1;;;9.1;;
73315;SDS011;61545;53.726;-0.444;2022-12-18T21:48:13;14.0;;;8.5;;
73315;SDS011;61545;53.726;-0.444;2022-12-18T21:53:13;14.2;;;9.1;;
73315;SDS011;61545;53.726;-0.444;2022-12-18T21:58:13;14.2;;;9.1;;
73315;SDS011;61545;53.726;-0.444;2022-12-18T22:03:13;14.7;;;9.6;;
73315;SDS011;61545;53.726;-0.444;2022-12-18T22:08:13;14.3;;;9.1;;
73315;SDS011;61545;53.726;-0.444;2022-12-18T22:13:13;16.3;;;10;;
73315;SDS011;61545;53.726;-0.444;2022-12-18T22:18:13;16.8;;;9.1;;
73315;SDS011;61545;53.726;-0.444;2022-12-18T22:23:13;17.4;;;10.7;;
73315;SDS011;61545;53.726;-0.444;2022-12-18T22:28:13;17.4;;;10.7;;
73315;SDS011;61545;53.726;-0.444;2022-12-18T22:33:13;15.4;;;9.6;;
73315;SDS011;61545;53.726;-0.444;2022-12-18T22:38:13;17.8;;;10.6;;
73315;SDS011;61545;53.726;-0.444;2022-12-18T22:43:13;16.4;;;10;;
73315;SDS011;61545;53.726;-0.444;2022-12-18T22:48:13;18.8;;;10.5;;
73315;SDS011;61545;53.726;-0.444;2022-12-18T22:53:13;19.1;;;11.1;;
73315;SDS011;61545;53.726;-0.444;2022-12-18T22:58:13;19.1;;;11.1;;
73315;SDS011;61545;53.726;-0.444;2022-12-18T23:03:13;19.2;;;11.2;;
73315;SDS011;61545;53.726;-0.444;2022-12-18T23:08:13;17.7;;;11.5;;
73315;SDS011;61545;53.726;-0.444;2022-12-18T23:13:16;18.9;;;11.1;;
73315;SDS011;61545;53.726;-0.444;2022-12-18T23:18:13;19.9;;;11.7;;
73315;SDS011;61545;53.726;-0.444;2022-12-18T23:23:13;18.3;;;10.9;;
73315;SDS011;61545;53.726;-0.444;2022-12-18T23:28:13;18.3;;;10.9;;
73315;SDS011;61545;53.726;-0.444;2022-12-18T23:33:13;19.9;;;11.7;;
73315;SDS011;61545;53.726;-0.444;2022-12-18T23:38:13;20.0;;;11.8;;
73315;SDS011;61545;53.726;-0.444;2022-12-18T23:43:13;18.7;;;11;;
73315;SDS011;61545;53.726;-0.444;2022-12-18T23:48:13;21.3;;;11.7;;
73315;SDS011;61545;53.726;-0.444;2022-12-18T23:53:13;26.6;;;14.6;;
73315;SDS011;61545;53.726;-0.444;2022-12-18T23:58:15;26.6;;;14.6;;
